Time;durP1;ratioP1;P1;durP2;ratioP2;P2;SDS_P1;SDS_P2;PMS_P1;PMS_P2;Temp;Humidity;BMP_temperature;BMP_pressure;BME280_temperature;BME280_humidity;BME280_pressure;Samples;Min_cycle;Max_cycle;Signal;HPM_P1;HPM_P2
2022/08/20 00:00:41;;;;;;;2.30;1.55;;;;;;;;;;4957775;28;20122;-69
2022/08/20 00:03:14;;;;;;;4.32;1.65;;;;;;;;;;4964937;28;20184;-69
2022/08/20 00:05:45;;;;;;;2.38;1.73;;;;;;;;;;4964428;28;20681;-70
2022/08/20 00:08:11;;;;;;;3.33;1.70;;;;;;;;;;4960896;28;20129;-69
2022/08/20 00:10:39;;;;;;;3.50;1.70;;;;;;;;;;4962761;28;20086;-71
2022/08/20 00:13:08;;;;;;;2.15;1.75;;;;;;;;;;4960750;28;20045;-73
2022/08/20 00:15:35;;;;;;;4.47;1.90;;;;;;;;;;4965019;28;20035;-69
2022/08/20 00:18:01;;;;;;;3.55;1.83;;;;;;;;;;4963230;28;20035;-71
2022/08/20 00:20:29;;;;;;;2.80;1.80;;;;;;;;;;4961616;28;20050;-71
2022/08/20 00:22:56;;;;;;;3.22;1.90;;;;;;;;;;4961931;28;20041;-71
2022/08/20 00:25:23;;;;;;;2.83;1.70;;;;;;;;;;4959153;28;20442;-70
2022/08/20 00:27:48;;;;;;;4.80;1.70;;;;;;;;;;4962820;28;20062;-69
2022/08/20 00:30:14;;;;;;;2.80;1.67;;;;;;;;;;4962305;28;20475;-70
2022/08/20 00:32:57;;;;;;;1.80;1.55;;;;;;;;;;4962333;28;20034;-70
2022/08/20 00:35:25;;;;;;;2.33;1.70;;;;;;;;;;4961641;28;20487;-71
2022/08/20 00:37:51;;;;;;;1.85;1.48;;;;;;;;;;4961778;28;20039;-70
2022/08/20 00:40:21;;;;;;;6.47;2.33;;;;;;;;;;4963482;28;20482;-69
2022/08/20 00:42:50;;;;;;;3.17;1.70;;;;;;;;;;4961624;28;21062;-70
2022/08/20 00:45:18;;;;;;;4.32;1.70;;;;;;;;;;4959337;28;20086;-70
2022/08/20 00:47:44;;;;;;;3.60;1.60;;;;;;;;;;4962961;28;20498;-71
2022/08/20 00:50:14;;;;;;;1.73;1.30;;;;;;;;;;4962440;28;20034;-70
2022/08/20 00:52:41;;;;;;;1.38;1.27;;;;;;;;;;4961260;28;20043;-70
2022/08/20 00:55:08;;;;;;;1.30;1.20;;;;;;;;;;4961202;28;20035;-71
2022/08/20 00:57:46;;;;;;;1.35;1.23;;;;;;;;;;4962169;28;20360;-70
2022/08/20 01:00:15;;;;;;;1.17;1.10;;;;;;;;;;4947207;28;20110;-70
2022/08/20 01:02:41;;;;;;;1.33;1.10;;;;;;;;;;4961377;28;20026;-71
2022/08/20 01:05:08;;;;;;;1.10;1.00;;;;;;;;;;4963488;28;20043;-71
2022/08/20 01:07:36;;;;;;;2.88;1.35;;;;;;;;;;4963925;28;20051;-70
2022/08/20 01:10:09;;;;;;;1.83;1.13;;;;;;;;;;4958136;28;20578;-70
2022/08/20 01:12:37;;;;;;;1.42;0.88;;;;;;;;;;4968049;28;20047;-69
2022/08/20 01:15:04;;;;;;;1.00;0.90;;;;;;;;;;4963444;28;20058;-69
2022/08/20 01:17:35;;;;;;;1.02;1.00;;;;;;;;;;4949980;28;20050;-69
2022/08/20 01:20:04;;;;;;;1.20;0.90;;;;;;;;;;4966566;28;20047;-69
2022/08/20 01:26:01;;;;;;;1.25;0.77;;;;;;;;;;4964542;28;20081;-71
2022/08/20 01:28:42;;;;;;;2.22;1.42;;;;;;;;;;4944352;28;20042;-71
2022/08/20 01:31:14;;;;;;;1.77;1.20;;;;;;;;;;4964842;28;20037;-71
2022/08/20 01:33:40;;;;;;;1.02;1.00;;;;;;;;;;4965247;28;22228;-71
2022/08/20 01:36:07;;;;;;;3.00;1.17;;;;;;;;;;4965960;28;20114;-70
2022/08/20 01:38:33;;;;;;;0.90;0.90;;;;;;;;;;4966086;28;20065;-71
2022/08/20 01:40:59;;;;;;;1.10;1.00;;;;;;;;;;4964616;28;20035;-70
2022/08/20 01:43:25;;;;;;;1.20;1.10;;;;;;;;;;4965694;28;20049;-70
2022/08/20 01:45:52;;;;;;;2.13;1.55;;;;;;;;;;4963174;28;20049;-70
2022/08/20 01:48:17;;;;;;;1.10;1.00;;;;;;;;;;4966178;28;20078;-69
2022/08/20 01:50:50;;;;;;;1.70;1.33;;;;;;;;;;4965293;28;20035;-70
2022/08/20 01:53:22;;;;;;;1.10;0.95;;;;;;;;;;4964471;28;20042;-69
2022/08/20 01:55:48;;;;;;;1.48;1.13;;;;;;;;;;4965164;28;20046;-69
2022/08/20 01:58:13;;;;;;;1.17;1.08;;;;;;;;;;4960884;28;20030;-69
2022/08/20 02:00:39;;;;;;;2.55;1.10;;;;;;;;;;4964628;28;20039;-69
2022/08/20 02:03:06;;;;;;;2.03;1.13;;;;;;;;;;4966123;28;20038;-69
2022/08/20 02:05:33;;;;;;;1.80;1.25;;;;;;;;;;4965106;28;20043;-71
2022/08/20 02:07:59;;;;;;;1.35;1.20;;;;;;;;;;4963122;28;20047;-71
2022/08/20 02:10:26;;;;;;;1.30;1.20;;;;;;;;;;4966571;28;20090;-70
2022/08/20 02:12:51;;;;;;;1.20;1.10;;;;;;;;;;4964141;28;20042;-70
2022/08/20 02:15:17;;;;;;;1.70;1.30;;;;;;;;;;4961489;28;20053;-70
2022/08/20 02:17:42;;;;;;;1.55;1.00;;;;;;;;;;4966191;28;20094;-71
2022/08/20 02:20:22;;;;;;;2.63;1.10;;;;;;;;;;4964670;28;20043;-71
2022/08/20 02:22:54;;;;;;;1.40;1.02;;;;;;;;;;4962452;28;20046;-69
2022/08/20 02:25:21;;;;;;;0.93;0.93;;;;;;;;;;4961903;28;20522;-69
2022/08/20 02:27:48;;;;;;;2.63;1.20;;;;;;;;;;4967206;28;20498;-70
2022/08/20 02:30:27;;;;;;;1.58;1.20;;;;;;;;;;4965575;28;20042;-70
2022/08/20 02:32:53;;;;;;;2.25;1.20;;;;;;;;;;4965010;28;20034;-70
2022/08/20 02:35:18;;;;;;;3.55;1.38;;;;;;;;;;4947902;28;20163;-69
2022/08/20 02:37:45;;;;;;;1.13;1.00;;;;;;;;;;4961107;28;20050;-71
2022/08/20 02:40:16;;;;;;;1.25;1.02;;;;;;;;;;4966081;28;20117;-71
2022/08/20 02:42:42;;;;;;;1.27;1.17;;;;;;;;;;4951977;28;20141;-71
2022/08/20 02:45:13;;;;;;;2.35;1.20;;;;;;;;;;4962228;28;20043;-72
2022/08/20 02:47:40;;;;;;;1.67;1.10;;;;;;;;;;4967020;28;20549;-71
2022/08/20 02:50:06;;;;;;;1.58;1.17;;;;;;;;;;4961748;28;20054;-70
2022/08/20 02:52:32;;;;;;;1.88;1.17;;;;;;;;;;4963651;28;20034;-70
2022/08/20 02:54:57;;;;;;;2.35;1.45;;;;;;;;;;4959659;28;20402;-71
2022/08/20 02:57:23;;;;;;;2.88;1.20;;;;;;;;;;4969036;28;20026;-70
2022/08/20 02:59:51;;;;;;;2.33;1.20;;;;;;;;;;4964103;28;20034;-70
2022/08/20 03:02:17;;;;;;;1.25;0.98;;;;;;;;;;4965320;28;20262;-70
2022/08/20 03:04:42;;;;;;;2.15;1.20;;;;;;;;;;4963143;28;20094;-70
2022/08/20 03:07:13;;;;;;;1.33;1.08;;;;;;;;;;4964233;28;20050;-70
2022/08/20 03:09:39;;;;;;;1.25;1.08;;;;;;;;;;4966918;28;20039;-70
2022/08/20 03:12:06;;;;;;;2.90;1.20;;;;;;;;;;4963303;28;20606;-71
2022/08/20 03:14:32;;;;;;;1.38;1.10;;;;;;;;;;4961554;28;20035;-70
2022/08/20 03:16:58;;;;;;;1.75;1.10;;;;;;;;;;4962134;28;20073;-70
2022/08/20 03:19:24;;;;;;;1.45;1.35;;;;;;;;;;4965922;28;20030;-70
2022/08/20 03:21:50;;;;;;;2.30;1.33;;;;;;;;;;4962242;28;20391;-70
2022/08/20 03:24:15;;;;;;;1.10;1.00;;;;;;;;;;4963711;28;20030;-70
2022/08/20 03:26:41;;;;;;;1.60;1.50;;;;;;;;;;4966051;28;20019;-70
2022/08/20 03:29:07;;;;;;;1.15;1.13;;;;;;;;;;4963198;28;20038;-70
2022/08/20 03:31:32;;;;;;;1.35;1.02;;;;;;;;;;4963232;28;20398;-70
2022/08/20 03:33:58;;;;;;;1.52;1.20;;;;;;;;;;4962842;28;20133;-71
2022/08/20 03:36:25;;;;;;;3.75;1.42;;;;;;;;;;4962312;28;20033;-70
2022/08/20 03:38:51;;;;;;;1.27;1.13;;;;;;;;;;4962618;28;20443;-69
2022/08/20 03:41:17;;;;;;;1.80;1.35;;;;;;;;;;4964022;28;20032;-69
2022/08/20 03:43:43;;;;;;;1.20;1.08;;;;;;;;;;4960890;28;20150;-70
2022/08/20 03:46:09;;;;;;;2.65;1.30;;;;;;;;;;4963603;28;20047;-70
2022/08/20 03:48:34;;;;;;;2.45;0.98;;;;;;;;;;4967866;28;20126;-70
2022/08/20 03:51:00;;;;;;;1.83;1.20;;;;;;;;;;4961430;28;20395;-71
2022/08/20 03:53:30;;;;;;;1.98;1.20;;;;;;;;;;4967326;28;20510;-71
2022/08/20 03:55:59;;;;;;;2.80;1.35;;;;;;;;;;4964253;28;20023;-70
2022/08/20 03:58:26;;;;;;;1.60;1.25;;;;;;;;;;4963352;28;20434;-70
2022/08/20 04:00:52;;;;;;;1.15;1.10;;;;;;;;;;4960013;28;20050;-70
2022/08/20 04:03:17;;;;;;;1.75;1.25;;;;;;;;;;4965200;28;20038;-70
2022/08/20 04:05:43;;;;;;;2.60;1.27;;;;;;;;;;4962844;28;20031;-72
2022/08/20 04:08:21;;;;;;;1.60;1.25;;;;;;;;;;4963926;28;20054;-70
2022/08/20 04:10:48;;;;;;;2.80;1.02;;;;;;;;;;4963024;28;20435;-70
2022/08/20 04:13:15;;;;;;;1.75;1.30;;;;;;;;;;4963616;28;20547;-70
2022/08/20 04:15:41;;;;;;;1.25;1.15;;;;;;;;;;4964699;28;20127;-69
2022/08/20 04:18:09;;;;;;;4.35;1.30;;;;;;;;;;4963730;28;20042;-71
2022/08/20 04:20:36;;;;;;;3.67;1.45;;;;;;;;;;4962487;28;20475;-70
2022/08/20 04:23:03;;;;;;;1.95;1.30;;;;;;;;;;4963625;28;20047;-71
2022/08/20 04:25:30;;;;;;;2.10;1.35;;;;;;;;;;4960545;28;20043;-70
2022/08/20 04:28:00;;;;;;;2.00;1.20;;;;;;;;;;4956030;28;20047;-71
2022/08/20 04:30:26;;;;;;;1.50;1.30;;;;;;;;;;4962956;28;20038;-71
2022/08/20 04:32:53;;;;;;;1.90;1.20;;;;;;;;;;4962243;28;20181;-71
2022/08/20 04:35:18;;;;;;;1.58;1.23;;;;;;;;;;4963315;28;20922;-71
2022/08/20 04:37:46;;;;;;;1.20;1.10;;;;;;;;;;4964035;28;20030;-70
2022/08/20 04:43:00;;;;;;;3.33;1.30;;;;;;;;;;4960502;28;20073;-69
2022/08/20 04:45:26;;;;;;;1.25;1.10;;;;;;;;;;4964436;28;20041;-70
2022/08/20 04:47:52;;;;;;;1.45;1.30;;;;;;;;;;4968306;28;20710;-70
2022/08/20 04:50:18;;;;;;;3.35;1.20;;;;;;;;;;4966746;28;20043;-70
2022/08/20 04:52:46;;;;;;;2.15;1.40;;;;;;;;;;4968495;28;20034;-69
2022/08/20 04:55:11;;;;;;;2.33;1.33;;;;;;;;;;4964514;28;20129;-71
2022/08/20 04:57:37;;;;;;;1.27;1.17;;;;;;;;;;4966983;28;20123;-70
2022/08/20 05:00:09;;;;;;;1.20;1.10;;;;;;;;;;4966836;28;20039;-70
2022/08/20 05:02:35;;;;;;;1.55;1.10;;;;;;;;;;4967362;28;20038;-70
2022/08/20 05:05:00;;;;;;;1.52;1.20;;;;;;;;;;4965889;28;20047;-70
2022/08/20 05:07:26;;;;;;;1.55;1.30;;;;;;;;;;4968412;28;20046;-70
2022/08/20 05:09:52;;;;;;;2.72;1.10;;;;;;;;;;4964241;28;20097;-71
2022/08/20 05:12:18;;;;;;;1.48;1.38;;;;;;;;;;4967382;28;20060;-71
2022/08/20 05:14:44;;;;;;;2.58;1.58;;;;;;;;;;4964867;28;20069;-71
2022/08/20 05:17:13;;;;;;;2.95;1.55;;;;;;;;;;4964511;28;20089;-71
2022/08/20 05:19:40;;;;;;;3.60;1.60;;;;;;;;;;4969741;28;20035;-70
2022/08/20 05:22:05;;;;;;;1.50;1.40;;;;;;;;;;4948489;28;20703;-71
2022/08/20 05:24:31;;;;;;;1.95;1.67;;;;;;;;;;4967370;28;20101;-70
2022/08/20 05:26:59;;;;;;;1.40;1.17;;;;;;;;;;4963215;28;20501;-71
2022/08/20 05:29:24;;;;;;;1.88;1.40;;;;;;;;;;4969302;28;20553;-72
2022/08/20 05:31:49;;;;;;;2.05;1.60;;;;;;;;;;4966821;28;20035;-70
2022/08/20 05:34:15;;;;;;;4.22;1.67;;;;;;;;;;4965131;28;20096;-70
2022/08/20 05:36:46;;;;;;;1.95;1.80;;;;;;;;;;4966718;28;20570;-71
2022/08/20 05:39:12;;;;;;;3.45;2.55;;;;;;;;;;4966713;28;20035;-70
2022/08/20 05:41:38;;;;;;;5.68;2.67;;;;;;;;;;4968525;28;20065;-71
2022/08/20 05:44:08;;;;;;;3.60;3.30;;;;;;;;;;4963497;28;20129;-70
2022/08/20 05:46:33;;;;;;;7.25;3.95;;;;;;;;;;4966727;28;20042;-70
2022/08/20 05:49:00;;;;;;;5.10;3.80;;;;;;;;;;4963110;28;20051;-70
2022/08/20 05:51:27;;;;;;;6.18;4.47;;;;;;;;;;4966079;28;20095;-70
2022/08/20 05:53:52;;;;;;;6.10;4.65;;;;;;;;;;4967745;28;20035;-70
2022/08/20 05:56:17;;;;;;;5.22;4.50;;;;;;;;;;4965808;28;20066;-70
2022/08/20 05:58:43;;;;;;;5.72;5.18;;;;;;;;;;4966621;28;20042;-71
2022/08/20 06:01:08;;;;;;;6.53;5.85;;;;;;;;;;4963838;28;20038;-71
2022/08/20 06:06:17;;;;;;;5.80;5.30;;;;;;;;;;4962088;28;20770;-70
2022/08/20 06:08:43;;;;;;;6.75;5.82;;;;;;;;;;4966388;28;20026;-70
2022/08/20 06:11:08;;;;;;;6.55;5.65;;;;;;;;;;4961982;28;20991;-70
2022/08/20 06:13:33;;;;;;;5.88;5.28;;;;;;;;;;4965587;28;20130;-70
2022/08/20 06:16:00;;;;;;;9.18;5.75;;;;;;;;;;4962728;28;20415;-70
2022/08/20 06:18:26;;;;;;;5.93;5.32;;;;;;;;;;4962527;28;20125;-69
2022/08/20 06:20:52;;;;;;;8.38;5.57;;;;;;;;;;4964207;28;20639;-70
2022/08/20 06:23:18;;;;;;;6.07;5.57;;;;;;;;;;4963370;28;20492;-71
2022/08/20 06:25:44;;;;;;;6.18;5.50;;;;;;;;;;4965152;28;20407;-71
2022/08/20 06:28:09;;;;;;;6.88;5.25;;;;;;;;;;4963935;28;20499;-70
2022/08/20 06:30:35;;;;;;;6.63;5.45;;;;;;;;;;4964203;28;20113;-69
2022/08/20 06:33:00;;;;;;;7.57;4.78;;;;;;;;;;4965878;28;20403;-69
2022/08/20 06:35:26;;;;;;;5.20;4.70;;;;;;;;;;4967115;28;20165;-68
2022/08/20 06:37:52;;;;;;;4.97;4.45;;;;;;;;;;4964484;28;20113;-70
2022/08/20 06:40:23;;;;;;;4.50;3.72;;;;;;;;;;4965100;28;20098;-70
2022/08/20 06:42:49;;;;;;;4.20;3.80;;;;;;;;;;4966055;28;20035;-70
2022/08/20 06:45:24;;;;;;;5.03;3.90;;;;;;;;;;4962515;28;20031;-70
2022/08/20 06:47:51;;;;;;;3.78;3.33;;;;;;;;;;4966317;28;20030;-71
2022/08/20 06:50:20;;;;;;;5.35;4.30;;;;;;;;;;4964039;28;20151;-70
2022/08/20 06:52:46;;;;;;;5.63;4.30;;;;;;;;;;4964366;28;20376;-70
2022/08/20 06:55:12;;;;;;;5.47;4.22;;;;;;;;;;4963518;28;20027;-71
2022/08/20 06:57:40;;;;;;;4.78;3.83;;;;;;;;;;4960062;28;20065;-70
2022/08/20 07:00:09;;;;;;;4.25;3.67;;;;;;;;;;4966340;28;20851;-70
2022/08/20 07:02:35;;;;;;;4.00;3.70;;;;;;;;;;4962131;28;20121;-70
2022/08/20 07:05:01;;;;;;;6.97;3.70;;;;;;;;;;4962179;28;20145;-69
2022/08/20 07:07:26;;;;;;;5.75;3.60;;;;;;;;;;4963093;28;20051;-69
2022/08/20 07:10:05;;;;;;;3.83;3.45;;;;;;;;;;4961732;28;20046;-69
2022/08/20 07:12:31;;;;;;;4.90;3.50;;;;;;;;;;4964616;28;20107;-70
2022/08/20 07:14:56;;;;;;;5.75;3.03;;;;;;;;;;4966473;28;20685;-70
2022/08/20 07:17:21;;;;;;;3.03;2.70;;;;;;;;;;4966297;28;20077;-70
2022/08/20 07:19:47;;;;;;;2.90;2.63;;;;;;;;;;4970679;28;20037;-70
2022/08/20 07:22:13;;;;;;;4.82;2.40;;;;;;;;;;4966863;28;20376;-70
2022/08/20 07:24:39;;;;;;;2.17;1.80;;;;;;;;;;4962755;28;20089;-70
2022/08/20 07:27:05;;;;;;;2.55;1.95;;;;;;;;;;4968393;28;20038;-69
2022/08/20 07:32:33;;;;;;;1.60;1.50;;;;;;;;;;4966175;28;20054;-70
2022/08/20 07:32:35;;;;;;;2.47;1.75;;;;;;;;;;4965170;28;20035;-69
2022/08/20 07:35:05;;;;;;;2.15;2.05;;;;;;;;;;4962672;28;20035;-68
2022/08/20 07:37:35;;;;;;;1.77;1.50;;;;;;;;;;4965305;28;20510;-68
2022/08/20 07:40:01;;;;;;;2.58;1.63;;;;;;;;;;4963663;28;20035;-69
2022/08/20 07:42:26;;;;;;;1.95;1.80;;;;;;;;;;4961501;28;20479;-69
2022/08/20 07:44:51;;;;;;;1.95;1.65;;;;;;;;;;4963961;28;20134;-69
2022/08/20 07:47:18;;;;;;;2.13;1.60;;;;;;;;;;4963594;28;20058;-69
2022/08/20 07:49:43;;;;;;;1.63;1.52;;;;;;;;;;4959627;28;20038;-69
2022/08/20 07:52:08;;;;;;;2.08;1.42;;;;;;;;;;4958806;28;20038;-69
2022/08/20 07:54:36;;;;;;;1.50;1.40;;;;;;;;;;4961824;28;20129;-69
2022/08/20 07:57:02;;;;;;;3.50;1.70;;;;;;;;;;4965388;28;20035;-69
2022/08/20 07:59:29;;;;;;;1.60;1.40;;;;;;;;;;4961892;28;20345;-71
2022/08/20 08:01:54;;;;;;;2.97;2.10;;;;;;;;;;4960774;28;20403;-69
2022/08/20 08:04:19;;;;;;;2.53;1.67;;;;;;;;;;4960772;28;20046;-69
2022/08/20 08:06:45;;;;;;;1.65;1.55;;;;;;;;;;4966020;28;20039;-70
2022/08/20 08:09:13;;;;;;;1.92;1.83;;;;;;;;;;4962842;28;20061;-70
2022/08/20 08:11:56;;;;;;;2.10;1.58;;;;;;;;;;4961346;28;20051;-69
2022/08/20 08:14:25;;;;;;;1.42;1.33;;;;;;;;;;4961128;28;20031;-69
2022/08/20 08:16:56;;;;;;;1.50;1.40;;;;;;;;;;4965333;28;20046;-69
2022/08/20 08:19:23;;;;;;;2.88;1.60;;;;;;;;;;4963574;28;20105;-69
2022/08/20 08:21:48;;;;;;;3.53;1.55;;;;;;;;;;4968639;28;20075;-69
2022/08/20 08:24:14;;;;;;;1.90;1.40;;;;;;;;;;4966495;28;20050;-69
2022/08/20 08:26:39;;;;;;;1.30;1.20;;;;;;;;;;4967356;28;20042;-69
2022/08/20 08:29:06;;;;;;;1.83;1.40;;;;;;;;;;4967336;28;20137;-69
2022/08/20 08:31:33;;;;;;;1.42;1.25;;;;;;;;;;4968480;28;20121;-68
2022/08/20 08:33:59;;;;;;;1.92;1.38;;;;;;;;;;4971515;28;20047;-69
2022/08/20 08:36:25;;;;;;;1.38;1.30;;;;;;;;;;4967131;28;20106;-68
2022/08/20 08:38:53;;;;;;;2.72;1.60;;;;;;;;;;4968415;28;20073;-69
2022/08/20 08:41:32;;;;;;;2.17;1.30;;;;;;;;;;4964501;28;20066;-69
2022/08/20 08:44:21;;;;;;;2.70;1.50;;;;;;;;;;4970332;28;20042;-70
2022/08/20 08:46:50;;;;;;;1.73;1.50;;;;;;;;;;4971370;28;20566;-70
2022/08/20 08:49:21;;;;;;;3.00;1.45;;;;;;;;;;4963560;28;20411;-69
2022/08/20 08:52:06;;;;;;;2.08;1.23;;;;;;;;;;4971306;28;20057;-70
2022/08/20 08:54:33;;;;;;;19.60;2.78;;;;;;;;;;4970862;28;20130;-70
2022/08/20 08:57:00;;;;;;;4.20;1.20;;;;;;;;;;4969639;28;20114;-70
2022/08/20 08:59:28;;;;;;;8.52;1.95;;;;;;;;;;4951608;28;20125;-70
2022/08/20 09:01:57;;;;;;;1.65;1.27;;;;;;;;;;4964198;28;20038;-69
2022/08/20 09:04:33;;;;;;;1.50;1.40;;;;;;;;;;4967784;28;20503;-70
2022/08/20 09:07:00;;;;;;;1.60;1.50;;;;;;;;;;4968568;28;20047;-70
2022/08/20 09:09:28;;;;;;;4.28;3.20;;;;;;;;;;4966133;28;20188;-70
2022/08/20 09:12:01;;;;;;;1.70;1.60;;;;;;;;;;4964338;28;20102;-69
2022/08/20 09:14:27;;;;;;;1.95;1.25;;;;;;;;;;4967876;28;20047;-68
2022/08/20 09:16:52;;;;;;;1.70;1.50;;;;;;;;;;4963312;28;20041;-67
2022/08/20 09:19:18;;;;;;;2.03;1.25;;;;;;;;;;4969552;28;20046;-69
2022/08/20 09:21:43;;;;;;;1.40;1.30;;;;;;;;;;4968687;28;20514;-69
2022/08/20 09:24:08;;;;;;;2.55;1.35;;;;;;;;;;4967249;28;20442;-69
2022/08/20 09:26:34;;;;;;;1.40;1.30;;;;;;;;;;4966487;28;20039;-69
2022/08/20 09:28:59;;;;;;;1.08;0.98;;;;;;;;;;4969918;28;20043;-69
2022/08/20 09:31:25;;;;;;;1.58;1.05;;;;;;;;;;4966946;28;20193;-68
2022/08/20 09:33:51;;;;;;;6.78;1.40;;;;;;;;;;4965479;28;20042;-68
2022/08/20 09:36:16;;;;;;;1.55;1.10;;;;;;;;;;4965697;28;20375;-69
2022/08/20 09:38:42;;;;;;;1.67;1.13;;;;;;;;;;4967611;28;20027;-70
2022/08/20 09:41:07;;;;;;;0.70;0.70;;;;;;;;;;4970690;28;20167;-69
2022/08/20 09:43:33;;;;;;;2.90;0.90;;;;;;;;;;4964308;28;20097;-69
2022/08/20 09:45:58;;;;;;;0.60;0.60;;;;;;;;;;4964897;28;20043;-69
2022/08/20 09:48:23;;;;;;;1.33;0.90;;;;;;;;;;4966164;28;20110;-69
2022/08/20 09:50:49;;;;;;;3.10;0.70;;;;;;;;;;4968640;28;20033;-69
2022/08/20 09:53:16;;;;;;;2.47;0.60;;;;;;;;;;4967322;28;20026;-69
2022/08/20 09:55:44;;;;;;;0.50;0.50;;;;;;;;;;4966116;28;20039;-69
2022/08/20 09:58:23;;;;;;;1.35;0.30;;;;;;;;;;4964452;28;20519;-69
2022/08/20 10:00:49;;;;;;;0.47;0.47;;;;;;;;;;4967215;28;20042;-68
2022/08/20 10:03:15;;;;;;;1.20;0.40;;;;;;;;;;4970881;28;20049;-69
2022/08/20 10:05:40;;;;;;;0.30;0.30;;;;;;;;;;4967445;28;20037;-68
2022/08/20 10:08:07;;;;;;;1.77;0.40;;;;;;;;;;4963400;28;20035;-67
2022/08/20 10:10:33;;;;;;;0.32;0.25;;;;;;;;;;4963348;28;20047;-68
2022/08/20 10:12:58;;;;;;;0.73;0.40;;;;;;;;;;4969586;28;20059;-68
2022/08/20 10:15:23;;;;;;;0.35;0.28;;;;;;;;;;4970387;28;20023;-67
2022/08/20 10:17:49;;;;;;;0.45;0.40;;;;;;;;;;4966407;28;20493;-67
2022/08/20 10:20:17;;;;;;;0.50;0.30;;;;;;;;;;4966990;28;20059;-70
2022/08/20 10:22:42;;;;;;;0.60;0.30;;;;;;;;;;4968111;28;20035;-69
2022/08/20 10:25:08;;;;;;;0.77;0.60;;;;;;;;;;4964484;28;20561;-70
2022/08/20 10:27:34;;;;;;;2.00;0.20;;;;;;;;;;4967592;28;21359;-70
2022/08/20 10:29:59;;;;;;;1.73;0.20;;;;;;;;;;4967840;28;20465;-69
2022/08/20 10:32:25;;;;;;;1.45;0.20;;;;;;;;;;4968227;28;20107;-69
2022/08/20 10:34:50;;;;;;;0.20;0.20;;;;;;;;;;4968836;28;20039;-69
2022/08/20 10:37:18;;;;;;;0.20;0.20;;;;;;;;;;4969052;28;20030;-72
2022/08/20 10:39:44;;;;;;;0.13;0.13;;;;;;;;;;4966373;28;20039;-69
2022/08/20 10:42:09;;;;;;;0.30;0.28;;;;;;;;;;4965397;28;20034;-69
2022/08/20 10:44:35;;;;;;;0.55;0.20;;;;;;;;;;4963893;28;20046;-68
2022/08/20 10:47:16;;;;;;;0.57;0.20;;;;;;;;;;4944990;28;20077;-68
2022/08/20 10:49:43;;;;;;;0.10;0.10;;;;;;;;;;4951599;28;20094;-68
2022/08/20 10:52:08;;;;;;;0.10;0.10;;;;;;;;;;4968376;28;20046;-67
2022/08/20 10:54:34;;;;;;;0.47;0.10;;;;;;;;;;4969175;28;20121;-68
2022/08/20 10:57:03;;;;;;;0.10;0.10;;;;;;;;;;4963661;28;20450;-68
2022/08/20 10:59:28;;;;;;;0.35;0.30;;;;;;;;;;4968755;28;20054;-69
2022/08/20 11:01:54;;;;;;;0.63;0.30;;;;;;;;;;4963971;28;20043;-70
2022/08/20 11:04:19;;;;;;;0.85;0.20;;;;;;;;;;4966652;28;20035;-69
2022/08/20 11:06:45;;;;;;;0.10;0.10;;;;;;;;;;4963904;28;20129;-69
2022/08/20 11:09:10;;;;;;;0.20;0.20;;;;;;;;;;4967045;28;20050;-70
2022/08/20 11:11:35;;;;;;;0.35;0.30;;;;;;;;;;4969632;28;20600;-67
2022/08/20 11:14:01;;;;;;;0.50;0.30;;;;;;;;;;4962118;28;20629;-67
2022/08/20 11:16:26;;;;;;;0.90;0.22;;;;;;;;;;4965567;28;20446;-69
2022/08/20 11:18:51;;;;;;;0.80;0.15;;;;;;;;;;4965475;28;20622;-68
2022/08/20 11:21:17;;;;;;;0.25;0.25;;;;;;;;;;4967467;28;20802;-67
2022/08/20 11:23:42;;;;;;;2.13;0.32;;;;;;;;;;4968521;28;20497;-70
2022/08/20 11:26:09;;;;;;;0.60;0.30;;;;;;;;;;4966865;28;20545;-69
2022/08/20 11:28:34;;;;;;;0.90;0.32;;;;;;;;;;4965328;28;20031;-68
2022/08/20 11:31:00;;;;;;;0.38;0.20;;;;;;;;;;4968718;28;20923;-69
2022/08/20 11:33:26;;;;;;;0.52;0.40;;;;;;;;;;4965744;28;20479;-69
2022/08/20 11:35:51;;;;;;;1.02;0.50;;;;;;;;;;4965025;28;20030;-69
2022/08/20 11:38:17;;;;;;;1.23;0.20;;;;;;;;;;4958852;28;21426;-69
2022/08/20 11:40:45;;;;;;;1.02;0.30;;;;;;;;;;4966147;28;20045;-70
2022/08/20 11:43:10;;;;;;;0.40;0.40;;;;;;;;;;4965700;28;20106;-70
2022/08/20 11:45:36;;;;;;;0.43;0.30;;;;;;;;;;4950969;28;20435;-69
2022/08/20 11:48:01;;;;;;;0.52;0.40;;;;;;;;;;4962722;28;20909;-69
2022/08/20 11:50:27;;;;;;;0.75;0.50;;;;;;;;;;4962353;28;20129;-69
2022/08/20 11:52:52;;;;;;;1.02;0.60;;;;;;;;;;4965653;28;20050;-70
2022/08/20 11:55:17;;;;;;;0.95;0.38;;;;;;;;;;4962243;28;20043;-69
2022/08/20 11:57:46;;;;;;;0.60;0.40;;;;;;;;;;4959737;28;20051;-68
2022/08/20 12:00:17;;;;;;;0.50;0.50;;;;;;;;;;4958894;28;20023;-70
2022/08/20 12:02:42;;;;;;;0.60;0.60;;;;;;;;;;4962888;28;20037;-70
2022/08/20 12:05:10;;;;;;;1.13;0.50;;;;;;;;;;4961756;28;20125;-69
2022/08/20 12:07:35;;;;;;;3.38;0.47;;;;;;;;;;4962351;28;20039;-71
2022/08/20 12:10:01;;;;;;;1.17;0.40;;;;;;;;;;4958077;28;20555;-70
2022/08/20 12:12:26;;;;;;;1.70;0.55;;;;;;;;;;4943667;28;20035;-70
2022/08/20 12:14:53;;;;;;;1.55;0.60;;;;;;;;;;4947164;28;20109;-69
2022/08/20 12:17:26;;;;;;;0.60;0.60;;;;;;;;;;4961459;28;20042;-67
2022/08/20 12:19:54;;;;;;;0.80;0.80;;;;;;;;;;4952432;28;20105;-70
2022/08/20 12:22:20;;;;;;;0.95;0.82;;;;;;;;;;4958653;28;20436;-69
2022/08/20 12:24:46;;;;;;;0.80;0.80;;;;;;;;;;4960573;28;20026;-68
2022/08/20 12:27:14;;;;;;;0.93;0.80;;;;;;;;;;4965641;28;20479;-67
2022/08/20 12:29:42;;;;;;;1.00;1.00;;;;;;;;;;4965663;28;20034;-68
2022/08/20 12:32:11;;;;;;;1.55;1.00;;;;;;;;;;4961012;28;20038;-69
2022/08/20 12:34:39;;;;;;;1.10;1.00;;;;;;;;;;4963985;28;20053;-69
2022/08/20 12:37:08;;;;;;;2.38;1.02;;;;;;;;;;4959416;28;20030;-68
2022/08/20 12:39:36;;;;;;;1.00;0.85;;;;;;;;;;4965623;28;20487;-68
2022/08/20 12:42:02;;;;;;;1.75;0.90;;;;;;;;;;4965023;28;20058;-69
2022/08/20 12:44:32;;;;;;;1.50;0.95;;;;;;;;;;4964364;28;20082;-69
2022/08/20 12:47:05;;;;;;;1.10;1.00;;;;;;;;;;4963389;28;20070;-68
2022/08/20 12:49:31;;;;;;;0.80;0.80;;;;;;;;;;4952093;28;20042;-70
2022/08/20 12:51:56;;;;;;;1.17;1.00;;;;;;;;;;4958616;28;20035;-69
2022/08/20 12:54:22;;;;;;;3.60;0.90;;;;;;;;;;4963860;28;20050;-68
2022/08/20 12:56:47;;;;;;;1.02;0.90;;;;;;;;;;4960260;28;20045;-69
2022/08/20 12:59:12;;;;;;;2.45;0.93;;;;;;;;;;4965657;28;20042;-68
2022/08/20 13:01:38;;;;;;;1.02;0.95;;;;;;;;;;4947662;28;20034;-68
2022/08/20 13:04:03;;;;;;;1.55;0.93;;;;;;;;;;4945110;28;20518;-68
2022/08/20 13:06:28;;;;;;;1.60;1.10;;;;;;;;;;4965715;28;20062;-68
2022/08/20 13:08:54;;;;;;;6.20;1.25;;;;;;;;;;4949115;28;20038;-68
2022/08/20 13:11:19;;;;;;;2.13;1.30;;;;;;;;;;4967835;28;20483;-67
2022/08/20 13:13:46;;;;;;;4.68;1.50;;;;;;;;;;4966967;28;20058;-68
2022/08/20 13:16:12;;;;;;;2.95;1.30;;;;;;;;;;4965012;28;20042;-69
2022/08/20 13:18:37;;;;;;;1.20;0.98;;;;;;;;;;4966103;28;20042;-69
2022/08/20 13:21:02;;;;;;;1.38;1.23;;;;;;;;;;4966269;28;20034;-69
2022/08/20 13:23:28;;;;;;;1.40;1.30;;;;;;;;;;4964863;28;20042;-69
2022/08/20 13:25:53;;;;;;;1.40;1.30;;;;;;;;;;4967241;28;20047;-68
2022/08/20 13:28:18;;;;;;;3.30;1.30;;;;;;;;;;4965535;28;20117;-69
2022/08/20 13:30:44;;;;;;;1.90;1.13;;;;;;;;;;4966685;28;20033;-68
2022/08/20 13:33:09;;;;;;;1.63;1.33;;;;;;;;;;4970051;28;20034;-68
2022/08/20 13:35:35;;;;;;;2.05;1.30;;;;;;;;;;4970080;28;20039;-69
2022/08/20 13:38:00;;;;;;;3.72;1.40;;;;;;;;;;4967574;28;20046;-68
2022/08/20 13:40:26;;;;;;;2.30;1.58;;;;;;;;;;4973457;28;20035;-69
2022/08/20 13:42:52;;;;;;;1.52;1.25;;;;;;;;;;4970274;28;20046;-69
2022/08/20 13:45:17;;;;;;;1.20;1.10;;;;;;;;;;4970929;28;20082;-68
2022/08/20 13:47:43;;;;;;;5.43;1.30;;;;;;;;;;4970301;28;20566;-69
2022/08/20 13:50:14;;;;;;;1.45;1.23;;;;;;;;;;4972269;28;20531;-69
2022/08/20 13:52:40;;;;;;;1.95;1.17;;;;;;;;;;4969203;28;20035;-70
2022/08/20 13:55:07;;;;;;;2.50;1.40;;;;;;;;;;4970905;28;20046;-69
2022/08/20 13:57:32;;;;;;;2.65;1.33;;;;;;;;;;4972408;28;20495;-68
2022/08/20 13:59:58;;;;;;;2.22;1.17;;;;;;;;;;4969649;28;20042;-68
2022/08/20 14:02:24;;;;;;;2.60;1.15;;;;;;;;;;4971537;28;20093;-68
2022/08/20 14:04:50;;;;;;;3.25;1.40;;;;;;;;;;4968537;28;20042;-68
2022/08/20 14:07:26;;;;;;;2.20;1.55;;;;;;;;;;4970193;28;20037;-68
2022/08/20 14:10:00;;;;;;;2.20;1.30;;;;;;;;;;4968732;28;20038;-67
2022/08/20 14:12:26;;;;;;;2.55;1.30;;;;;;;;;;4953798;28;20038;-67
2022/08/20 14:14:53;;;;;;;2.05;1.40;;;;;;;;;;4969091;28;20039;-68
2022/08/20 14:17:24;;;;;;;1.55;1.38;;;;;;;;;;4970648;28;20043;-68
2022/08/20 14:19:53;;;;;;;1.80;1.40;;;;;;;;;;4969055;28;20118;-67
2022/08/20 14:22:19;;;;;;;2.70;1.25;;;;;;;;;;4970765;28;20085;-67
2022/08/20 14:24:46;;;;;;;1.42;1.33;;;;;;;;;;4971166;28;20761;-68
2022/08/20 14:27:12;;;;;;;1.90;1.52;;;;;;;;;;4966903;28;20133;-67
2022/08/20 14:29:40;;;;;;;1.55;1.45;;;;;;;;;;4967184;28;20039;-68
2022/08/20 14:32:06;;;;;;;2.42;1.20;;;;;;;;;;4968293;28;20051;-68
2022/08/20 14:34:32;;;;;;;2.97;1.20;;;;;;;;;;4970837;28;20033;-68
2022/08/20 14:37:19;;;;;;;1.83;1.05;;;;;;;;;;4967738;28;20022;-68
2022/08/20 14:39:47;;;;;;;2.60;1.30;;;;;;;;;;4967948;28;20106;-68
2022/08/20 14:42:13;;;;;;;4.63;1.50;;;;;;;;;;4969292;28;20073;-68
2022/08/20 14:44:39;;;;;;;1.30;1.20;;;;;;;;;;4969375;28;20043;-68
2022/08/20 14:47:18;;;;;;;6.10;1.40;;;;;;;;;;4967798;28;20050;-68
2022/08/20 14:49:45;;;;;;;1.50;1.00;;;;;;;;;;4969711;28;20157;-67
2022/08/20 14:52:12;;;;;;;3.35;1.05;;;;;;;;;;4967660;28;21553;-68